T7GPM LIRZ-LIPZ
Flight info
| Callsign | T7GPM |
|---|---|
| Flight time | 0h 47m |
| Altitude | 18000 |
| Route | LAKOX5N LAKOX Q25 VERUN DCT GAVRA DCT BAGNO DCT PELEG DCT SUKOM Q125 NIMUM Z43 OTGIG OTGIG2E |
| Aircraft | P180/L-SDE3FGHIRWY/C |
Departure
| Time | 2026-05-05 21:01 |
|---|---|
| Airport | Perugia San Francesco d'Assisi – Umbria International Airport (LIRZ) |
Arrival
| Time | 2026-05-05 21:49 |
|---|---|
| Airport | Venice Marco Polo Airport (LIPZ) |
| Time | Latitude | Longitude | Altitude | Speed | Heading |
|---|---|---|---|---|---|
| 2026-05-05 20:36 | 43.09426 | 12.50444 | 680 ft | 0 kts | 249° |
| 2026-05-05 20:55 | 43.09427 | 12.50439 | 680 ft | 2 kts | 279° |
| 2026-05-05 20:55 | 43.09451 | 12.50435 | 681 ft | 6 kts | 14° |
| 2026-05-05 20:55 | 43.09498 | 12.50452 | 681 ft | 8 kts | 14° |
| 2026-05-05 20:55 | 43.09550 | 12.50492 | 682 ft | 11 kts | 59° |
| 2026-05-05 20:56 | 43.09586 | 12.50599 | 682 ft | 13 kts | 66° |
| 2026-05-05 20:56 | 43.09626 | 12.50722 | 680 ft | 15 kts | 66° |
| 2026-05-05 20:56 | 43.09671 | 12.50858 | 682 ft | 16 kts | 66° |
| 2026-05-05 20:56 | 43.09719 | 12.51006 | 684 ft | 18 kts | 65° |
| 2026-05-05 20:57 | 43.09782 | 12.51155 | 685 ft | 19 kts | 28° |
| 2026-05-05 20:57 | 43.09911 | 12.51203 | 686 ft | 20 kts | 14° |
| 2026-05-05 20:57 | 43.10044 | 12.51250 | 688 ft | 20 kts | 14° |
| 2026-05-05 20:57 | 43.10179 | 12.51297 | 689 ft | 20 kts | 14° |
| 2026-05-05 20:58 | 43.10319 | 12.51345 | 691 ft | 21 kts | 14° |
| 2026-05-05 20:58 | 43.10460 | 12.51395 | 693 ft | 21 kts | 14° |
| 2026-05-05 20:58 | 43.10603 | 12.51445 | 694 ft | 21 kts | 14° |
| 2026-05-05 20:58 | 43.10732 | 12.51490 | 695 ft | 19 kts | 14° |
| 2026-05-05 20:59 | 43.10782 | 12.51559 | 695 ft | 12 kts | 92° |
| 2026-05-05 20:59 | 43.10778 | 12.51588 | 694 ft | 0 kts | 104° |
| 2026-05-05 20:59 | 43.10776 | 12.51596 | 693 ft | 5 kts | 104° |
| 2026-05-05 20:59 | 43.10759 | 12.51705 | 680 ft | 8 kts | 97° |
| 2026-05-05 21:00 | 43.10729 | 12.51719 | 680 ft | 0 kts | 192° |
| 2026-05-05 21:00 | 43.10596 | 12.51673 | 679 ft | 53 kts | 194° |
| 2026-05-05 21:00 | 43.10047 | 12.51482 | 677 ft | 102 kts | 194° |
| 2026-05-05 21:01 | 43.09283 | 12.51219 | 769 ft | 117 kts | 193° |
| 2026-05-05 21:01 | 43.08485 | 12.50920 | 1108 ft | 125 kts | 195° |
| 2026-05-05 21:01 | 43.07784 | 12.50179 | 1419 ft | 147 kts | 247° |
| 2026-05-05 21:01 | 43.08019 | 12.48747 | 1783 ft | 174 kts | 308° |
| 2026-05-05 21:02 | 43.08933 | 12.47572 | 2188 ft | 185 kts | 309° |
| 2026-05-05 21:02 | 43.09645 | 12.46087 | 2670 ft | 185 kts | 287° |
| 2026-05-05 21:02 | 43.09999 | 12.44415 | 3229 ft | 182 kts | 277° |
| 2026-05-05 21:02 | 43.10263 | 12.42743 | 3765 ft | 181 kts | 276° |
| 2026-05-05 21:03 | 43.10541 | 12.41046 | 4325 ft | 183 kts | 277° |
| 2026-05-05 21:03 | 43.10821 | 12.39349 | 4886 ft | 181 kts | 278° |
| 2026-05-05 21:03 | 43.11104 | 12.37677 | 5436 ft | 180 kts | 277° |
| 2026-05-05 21:03 | 43.11383 | 12.36004 | 5982 ft | 180 kts | 278° |
| 2026-05-05 21:04 | 43.11662 | 12.34336 | 6528 ft | 179 kts | 278° |
| 2026-05-05 21:04 | 43.11943 | 12.32690 | 7059 ft | 177 kts | 278° |
| 2026-05-05 21:04 | 43.12208 | 12.31052 | 7587 ft | 175 kts | 278° |
| 2026-05-05 21:04 | 43.12480 | 12.29436 | 8129 ft | 173 kts | 278° |
| 2026-05-05 21:05 | 43.12743 | 12.27859 | 8673 ft | 171 kts | 278° |
| 2026-05-05 21:05 | 43.13006 | 12.26283 | 9232 ft | 167 kts | 278° |
| 2026-05-05 21:05 | 43.13260 | 12.24757 | 9798 ft | 162 kts | 278° |
| 2026-05-05 21:05 | 43.13507 | 12.23273 | 10323 ft | 157 kts | 278° |
| 2026-05-05 21:06 | 43.13747 | 12.21824 | 10778 ft | 156 kts | 278° |
| 2026-05-05 21:06 | 43.13987 | 12.20360 | 11097 ft | 163 kts | 278° |
| 2026-05-05 21:06 | 43.14242 | 12.18816 | 11411 ft | 167 kts | 278° |
| 2026-05-05 21:06 | 43.14508 | 12.17249 | 11736 ft | 171 kts | 279° |
| 2026-05-05 21:07 | 43.14772 | 12.15645 | 12071 ft | 175 kts | 278° |
| 2026-05-05 21:07 | 43.15038 | 12.14008 | 12404 ft | 178 kts | 278° |
| 2026-05-05 21:07 | 43.15320 | 12.12351 | 12744 ft | 180 kts | 280° |
| 2026-05-05 21:07 | 43.15817 | 12.10769 | 13126 ft | 183 kts | 295° |
| 2026-05-05 21:08 | 43.16575 | 12.09359 | 13516 ft | 186 kts | 307° |
| 2026-05-05 21:08 | 43.17171 | 12.08518 | 13762 ft | 185 kts | 307° |
| 2026-05-05 21:08 | 43.18318 | 12.06794 | 14204 ft | 184 kts | 306° |
| 2026-05-05 21:08 | 43.19184 | 12.05501 | 14535 ft | 184 kts | 306° |
| 2026-05-05 21:09 | 43.20049 | 12.04213 | 14877 ft | 183 kts | 305° |
| 2026-05-05 21:09 | 43.20911 | 12.02931 | 15212 ft | 183 kts | 305° |
| 2026-05-05 21:09 | 43.21480 | 12.02080 | 15445 ft | 181 kts | 305° |
| 2026-05-05 21:09 | 43.22330 | 12.00813 | 15812 ft | 179 kts | 305° |
| 2026-05-05 21:10 | 43.23170 | 11.99563 | 16183 ft | 177 kts | 304° |
| 2026-05-05 21:10 | 43.23995 | 11.98332 | 16556 ft | 173 kts | 304° |
| 2026-05-05 21:10 | 43.24804 | 11.97128 | 16933 ft | 169 kts | 303° |
| 2026-05-05 21:10 | 43.25596 | 11.95941 | 17295 ft | 167 kts | 303° |
| 2026-05-05 21:11 | 43.26376 | 11.94781 | 17647 ft | 164 kts | 303° |
| 2026-05-05 21:11 | 43.27148 | 11.93643 | 17952 ft | 166 kts | 306° |
| 2026-05-05 21:11 | 43.28134 | 11.92656 | 18024 ft | 188 kts | 322° |
| 2026-05-05 21:11 | 43.29407 | 11.91925 | 18038 ft | 209 kts | 338° |
| 2026-05-05 21:12 | 43.30910 | 11.91598 | 18036 ft | 226 kts | 347° |
| 2026-05-05 21:12 | 43.32519 | 11.91305 | 18037 ft | 241 kts | 346° |
| 2026-05-05 21:12 | 43.34232 | 11.90951 | 18036 ft | 256 kts | 346° |
| 2026-05-05 21:12 | 43.36042 | 11.90597 | 18036 ft | 268 kts | 347° |
| 2026-05-05 21:13 | 43.37928 | 11.90238 | 18034 ft | 278 kts | 347° |
| 2026-05-05 21:13 | 43.39873 | 11.89860 | 18035 ft | 286 kts | 347° |
| 2026-05-05 21:13 | 43.41835 | 11.89477 | 18027 ft | 291 kts | 347° |
| 2026-05-05 21:13 | 43.43853 | 11.89087 | 18026 ft | 295 kts | 347° |
| 2026-05-05 21:14 | 43.45895 | 11.88687 | 18028 ft | 298 kts | 347° |
| 2026-05-05 21:14 | 43.47956 | 11.88286 | 18029 ft | 300 kts | 347° |
| 2026-05-05 21:14 | 43.50032 | 11.87881 | 18031 ft | 302 kts | 347° |
| 2026-05-05 21:14 | 43.52121 | 11.87472 | 18028 ft | 304 kts | 347° |
| 2026-05-05 21:15 | 43.54224 | 11.87064 | 18030 ft | 305 kts | 347° |
| 2026-05-05 21:15 | 43.56334 | 11.86648 | 18026 ft | 306 kts | 347° |
| 2026-05-05 21:15 | 43.58448 | 11.86236 | 18028 ft | 307 kts | 347° |
| 2026-05-05 21:15 | 43.60564 | 11.85824 | 18027 ft | 307 kts | 347° |
| 2026-05-05 21:16 | 43.62679 | 11.85407 | 18023 ft | 307 kts | 347° |
| 2026-05-05 21:16 | 43.64800 | 11.84991 | 18021 ft | 308 kts | 347° |
| 2026-05-05 21:16 | 43.66926 | 11.84573 | 18025 ft | 309 kts | 347° |
| 2026-05-05 21:16 | 43.69027 | 11.84161 | 18020 ft | 309 kts | 347° |
| 2026-05-05 21:17 | 43.71157 | 11.83741 | 18021 ft | 309 kts | 347° |
| 2026-05-05 21:17 | 43.73292 | 11.83323 | 18022 ft | 310 kts | 347° |
| 2026-05-05 21:17 | 43.75427 | 11.82905 | 18020 ft | 311 kts | 347° |
| 2026-05-05 21:17 | 43.77583 | 11.82477 | 18016 ft | 314 kts | 347° |
| 2026-05-05 21:18 | 43.79755 | 11.82043 | 18017 ft | 316 kts | 347° |
| 2026-05-05 21:18 | 43.81945 | 11.81648 | 18010 ft | 318 kts | 348° |
| 2026-05-05 21:18 | 43.84138 | 11.81202 | 18009 ft | 318 kts | 346° |
| 2026-05-05 21:18 | 43.86329 | 11.80723 | 18008 ft | 319 kts | 347° |
| 2026-05-05 21:19 | 43.88503 | 11.80310 | 18010 ft | 319 kts | 348° |
| 2026-05-05 21:19 | 43.90712 | 11.79913 | 18013 ft | 320 kts | 348° |
| 2026-05-05 21:19 | 43.92925 | 11.79473 | 18010 ft | 321 kts | 347° |
| 2026-05-05 21:19 | 43.95141 | 11.79008 | 18004 ft | 322 kts | 347° |
| 2026-05-05 21:20 | 43.97371 | 11.78574 | 18006 ft | 323 kts | 348° |
| 2026-05-05 21:20 | 43.99598 | 11.78145 | 18001 ft | 322 kts | 347° |
| 2026-05-05 21:20 | 44.01817 | 11.77693 | 18001 ft | 323 kts | 347° |
| 2026-05-05 21:20 | 44.04040 | 11.77263 | 17999 ft | 322 kts | 348° |
| 2026-05-05 21:21 | 44.06263 | 11.76824 | 18000 ft | 322 kts | 347° |
| 2026-05-05 21:21 | 44.08451 | 11.76380 | 17998 ft | 322 kts | 347° |
| 2026-05-05 21:21 | 44.10668 | 11.75941 | 17998 ft | 322 kts | 347° |
| 2026-05-05 21:21 | 44.12892 | 11.75497 | 18000 ft | 322 kts | 347° |
| 2026-05-05 21:22 | 44.15113 | 11.75050 | 17999 ft | 322 kts | 347° |
| 2026-05-05 21:22 | 44.17335 | 11.74613 | 17996 ft | 322 kts | 347° |
| 2026-05-05 21:22 | 44.19547 | 11.74160 | 17994 ft | 321 kts | 347° |
| 2026-05-05 21:22 | 44.21766 | 11.73741 | 17993 ft | 321 kts | 348° |
| 2026-05-05 21:23 | 44.23976 | 11.73308 | 18002 ft | 321 kts | 347° |
| 2026-05-05 21:23 | 44.26182 | 11.72838 | 17995 ft | 321 kts | 347° |
| 2026-05-05 21:23 | 44.28394 | 11.72393 | 17998 ft | 321 kts | 347° |
| 2026-05-05 21:23 | 44.30583 | 11.71965 | 17999 ft | 321 kts | 347° |
| 2026-05-05 21:24 | 44.32794 | 11.71515 | 18001 ft | 321 kts | 347° |
| 2026-05-05 21:24 | 44.35007 | 11.71066 | 17999 ft | 321 kts | 347° |
| 2026-05-05 21:24 | 44.37217 | 11.70624 | 17997 ft | 321 kts | 347° |
| 2026-05-05 21:24 | 44.39429 | 11.70175 | 18003 ft | 321 kts | 347° |
| 2026-05-05 21:25 | 44.41641 | 11.69729 | 17998 ft | 321 kts | 347° |
| 2026-05-05 21:25 | 44.43858 | 11.69281 | 18000 ft | 321 kts | 347° |
| 2026-05-05 21:25 | 44.46074 | 11.68836 | 17999 ft | 321 kts | 346° |
| 2026-05-05 21:25 | 44.48287 | 11.68381 | 17997 ft | 322 kts | 346° |
| 2026-05-05 21:26 | 44.50471 | 11.67941 | 17994 ft | 322 kts | 347° |
| 2026-05-05 21:26 | 44.52754 | 11.67785 | 17990 ft | 328 kts | 359° |
| 2026-05-05 21:26 | 44.54997 | 11.68228 | 17987 ft | 332 kts | 8° |
| 2026-05-05 21:26 | 44.57210 | 11.69225 | 17984 ft | 336 kts | 20° |
| 2026-05-05 21:27 | 44.59288 | 11.70766 | 17994 ft | 339 kts | 31° |
| 2026-05-05 21:27 | 44.61239 | 11.72662 | 17993 ft | 340 kts | 32° |
| 2026-05-05 21:27 | 44.63212 | 11.74501 | 17993 ft | 340 kts | 31° |
| 2026-05-05 21:27 | 44.65195 | 11.76320 | 17994 ft | 341 kts | 31° |
| 2026-05-05 21:28 | 44.67139 | 11.78180 | 17997 ft | 342 kts | 32° |
| 2026-05-05 21:28 | 44.69098 | 11.80065 | 17981 ft | 341 kts | 32° |
| 2026-05-05 21:28 | 44.71091 | 11.81935 | 17758 ft | 347 kts | 31° |
| 2026-05-05 21:28 | 44.73133 | 11.83853 | 17313 ft | 358 kts | 32° |
| 2026-05-05 21:29 | 44.75218 | 11.85844 | 16839 ft | 364 kts | 32° |
| 2026-05-05 21:29 | 44.77303 | 11.87842 | 16367 ft | 360 kts | 32° |
| 2026-05-05 21:29 | 44.79377 | 11.89796 | 15886 ft | 357 kts | 31° |
| 2026-05-05 21:29 | 44.81434 | 11.91742 | 15414 ft | 355 kts | 32° |
| 2026-05-05 21:30 | 44.83464 | 11.93699 | 14943 ft | 352 kts | 32° |
| 2026-05-05 21:30 | 44.85463 | 11.95604 | 14484 ft | 350 kts | 31° |
| 2026-05-05 21:30 | 44.87480 | 11.97504 | 14024 ft | 347 kts | 31° |
| 2026-05-05 21:30 | 44.89477 | 11.99419 | 13541 ft | 345 kts | 32° |
| 2026-05-05 21:31 | 44.91451 | 12.01326 | 13079 ft | 341 kts | 32° |
| 2026-05-05 21:31 | 44.93309 | 12.03402 | 12625 ft | 340 kts | 41° |
| 2026-05-05 21:31 | 44.95016 | 12.05700 | 12183 ft | 336 kts | 41° |
| 2026-05-05 21:31 | 44.96774 | 12.07856 | 11727 ft | 333 kts | 38° |
| 2026-05-05 21:32 | 44.98620 | 12.09738 | 11303 ft | 329 kts | 28° |
| 2026-05-05 21:32 | 45.00706 | 12.10996 | 10885 ft | 323 kts | 13° |
| 2026-05-05 21:32 | 45.02890 | 12.11494 | 10569 ft | 314 kts | 360° |
| 2026-05-05 21:32 | 45.05046 | 12.11385 | 10252 ft | 307 kts | 348° |
| 2026-05-05 21:33 | 45.07078 | 12.10609 | 9943 ft | 299 kts | 333° |
| 2026-05-05 21:33 | 45.08850 | 12.09161 | 9631 ft | 290 kts | 319° |
| 2026-05-05 21:33 | 45.10248 | 12.07183 | 9355 ft | 277 kts | 303° |
| 2026-05-05 21:33 | 45.11158 | 12.04920 | 9119 ft | 261 kts | 288° |
| 2026-05-05 21:34 | 45.11555 | 12.02498 | 8993 ft | 245 kts | 271° |
| 2026-05-05 21:34 | 45.11415 | 12.00176 | 8988 ft | 231 kts | 254° |
| 2026-05-05 21:34 | 45.10784 | 11.98148 | 8984 ft | 222 kts | 236° |
| 2026-05-05 21:34 | 45.09730 | 11.96571 | 8990 ft | 221 kts | 218° |
| 2026-05-05 21:35 | 45.08361 | 11.95562 | 8993 ft | 223 kts | 203° |
| 2026-05-05 21:35 | 45.06904 | 11.94809 | 8992 ft | 222 kts | 204° |
| 2026-05-05 21:35 | 45.05527 | 11.93830 | 8991 ft | 221 kts | 214° |
| 2026-05-05 21:35 | 45.04333 | 11.92477 | 8989 ft | 221 kts | 224° |
| 2026-05-05 21:36 | 45.03211 | 11.90960 | 8990 ft | 225 kts | 224° |
| 2026-05-05 21:36 | 45.02144 | 11.89377 | 8989 ft | 227 kts | 233° |
| 2026-05-05 21:36 | 45.01442 | 11.87376 | 8986 ft | 230 kts | 251° |
| 2026-05-05 21:36 | 45.01249 | 11.85126 | 8989 ft | 234 kts | 269° |
| 2026-05-05 21:37 | 45.01586 | 11.82861 | 8989 ft | 239 kts | 287° |
| 2026-05-05 21:37 | 45.02427 | 11.80818 | 8990 ft | 245 kts | 304° |
| 2026-05-05 21:37 | 45.03708 | 11.79193 | 8990 ft | 251 kts | 322° |
| 2026-05-05 21:37 | 45.05312 | 11.78161 | 8990 ft | 257 kts | 340° |
| 2026-05-05 21:38 | 45.07098 | 11.77826 | 8991 ft | 262 kts | 357° |
| 2026-05-05 21:38 | 45.08909 | 11.78237 | 8992 ft | 267 kts | 14° |
| 2026-05-05 21:38 | 45.10569 | 11.79355 | 8991 ft | 269 kts | 32° |
| 2026-05-05 21:38 | 45.11968 | 11.81121 | 8993 ft | 270 kts | 49° |
| 2026-05-05 21:39 | 45.12965 | 11.83371 | 8992 ft | 270 kts | 67° |
| 2026-05-05 21:39 | 45.13598 | 11.85868 | 8992 ft | 269 kts | 73° |
| 2026-05-05 21:39 | 45.14309 | 11.88321 | 8991 ft | 270 kts | 64° |
| 2026-05-05 21:39 | 45.15314 | 11.90561 | 8997 ft | 270 kts | 51° |
| 2026-05-05 21:40 | 45.16673 | 11.92393 | 8988 ft | 269 kts | 37° |
| 2026-05-05 21:40 | 45.18159 | 11.94002 | 8993 ft | 269 kts | 36° |
| 2026-05-05 21:40 | 45.19537 | 11.95644 | 9000 ft | 245 kts | 41° |
| 2026-05-05 21:40 | 45.20738 | 11.97142 | 9002 ft | 218 kts | 39° |
| 2026-05-05 21:41 | 45.21855 | 11.98501 | 8995 ft | 206 kts | 40° |
| 2026-05-05 21:41 | 45.22901 | 11.99838 | 8990 ft | 200 kts | 41° |
| 2026-05-05 21:41 | 45.23924 | 12.01148 | 8988 ft | 198 kts | 41° |
| 2026-05-05 21:41 | 45.24953 | 12.02468 | 8987 ft | 200 kts | 41° |
| 2026-05-05 21:42 | 45.25990 | 12.03796 | 8977 ft | 200 kts | 40° |
| 2026-05-05 21:42 | 45.27024 | 12.05120 | 8989 ft | 200 kts | 40° |
| 2026-05-05 21:42 | 45.28062 | 12.06433 | 8990 ft | 200 kts | 40° |
| 2026-05-05 21:42 | 45.29109 | 12.07769 | 8860 ft | 207 kts | 40° |
| 2026-05-05 21:43 | 45.30181 | 12.09140 | 8804 ft | 206 kts | 40° |
| 2026-05-05 21:43 | 45.31242 | 12.10503 | 8777 ft | 204 kts | 40° |
| 2026-05-05 21:43 | 45.32304 | 12.11840 | 8754 ft | 203 kts | 40° |
| 2026-05-05 21:43 | 45.33362 | 12.13197 | 8601 ft | 208 kts | 40° |
| 2026-05-05 21:44 | 45.34488 | 12.14638 | 7667 ft | 218 kts | 40° |
| 2026-05-05 21:44 | 45.35557 | 12.16015 | 6739 ft | 203 kts | 40° |
| 2026-05-05 21:44 | 45.36591 | 12.17322 | 5782 ft | 196 kts | 39° |
| 2026-05-05 21:44 | 45.37589 | 12.18597 | 4828 ft | 190 kts | 40° |
| 2026-05-05 21:45 | 45.38562 | 12.19842 | 3852 ft | 185 kts | 41° |
| 2026-05-05 21:45 | 45.39496 | 12.21040 | 3108 ft | 174 kts | 42° |
| 2026-05-05 21:45 | 45.40324 | 12.22103 | 2989 ft | 146 kts | 43° |
| 2026-05-05 21:45 | 45.41040 | 12.23021 | 2889 ft | 137 kts | 43° |
| 2026-05-05 21:46 | 45.41757 | 12.23943 | 2624 ft | 140 kts | 43° |
| 2026-05-05 21:46 | 45.42474 | 12.24865 | 2402 ft | 136 kts | 43° |
| 2026-05-05 21:46 | 45.43136 | 12.25712 | 2384 ft | 125 kts | 43° |
| 2026-05-05 21:46 | 45.43779 | 12.26554 | 2147 ft | 128 kts | 46° |
| 2026-05-05 21:47 | 45.44447 | 12.27455 | 1882 ft | 141 kts | 47° |
| 2026-05-05 21:47 | 45.45201 | 12.28450 | 1702 ft | 147 kts | 44° |
| 2026-05-05 21:47 | 45.45962 | 12.29396 | 1464 ft | 143 kts | 42° |
| 2026-05-05 21:47 | 45.46715 | 12.30356 | 1095 ft | 146 kts | 44° |
| 2026-05-05 21:48 | 45.47440 | 12.31346 | 687 ft | 144 kts | 42° |
| 2026-05-05 21:48 | 45.48193 | 12.32260 | 380 ft | 139 kts | 39° |
| 2026-05-05 21:48 | 45.48923 | 12.33157 | 184 ft | 136 kts | 41° |
| 2026-05-05 21:48 | 45.49594 | 12.34014 | 22 ft | 113 kts | 41° |
| 2026-05-05 21:49 | 45.50069 | 12.34623 | 7 ft | 72 kts | 42° |
| 2026-05-05 21:49 | 45.50290 | 12.34902 | 7 ft | 40 kts | 40° |
| 2026-05-05 21:49 | 45.50417 | 12.35035 | 4 ft | 18 kts | 16° |
| 2026-05-05 21:49 | 45.50542 | 12.35073 | 6 ft | 19 kts | 12° |
| 2026-05-05 21:50 | 45.50614 | 12.35019 | 6 ft | 0 kts | 278° |
| 2026-05-05 21:50 | 45.50613 | 12.34987 | 6 ft | 7 kts | 258° |
| 2026-05-05 21:51 | 45.50611 | 12.34891 | 7 ft | 12 kts | 270° |
| 2026-05-05 21:51 | 45.50607 | 12.34755 | 8 ft | 15 kts | 267° |
| 2026-05-05 21:51 | 45.50602 | 12.34600 | 9 ft | 17 kts | 267° |
| 2026-05-05 21:51 | 45.50593 | 12.34429 | 9 ft | 14 kts | 248° |
| 2026-05-05 21:52 | 45.50614 | 12.34247 | 8 ft | 15 kts | 271° |
| 2026-05-05 21:52 | 45.50613 | 12.34198 | 8 ft | 0 kts | 266° |